createdAt,value
2017-05-13T00:01:20.479Z,92.40
2017-05-13T00:03:49.459Z,92.00
2017-05-13T00:06:18.468Z,92.50
2017-05-13T00:08:47.460Z,91.80
2017-05-13T00:11:15.688Z,91.80
2017-05-13T00:13:43.960Z,91.40
2017-05-13T00:16:12.198Z,91.70
2017-05-13T00:18:40.451Z,91.90
2017-05-13T00:21:09.422Z,92.10
2017-05-13T00:23:37.654Z,92.60
2017-05-13T00:26:05.905Z,92.90
2017-05-13T00:28:34.132Z,93.70
2017-05-13T00:31:02.397Z,94.00
2017-05-13T00:33:30.630Z,94.60
2017-05-13T00:35:58.861Z,94.60
2017-05-13T00:38:27.100Z,94.70
2017-05-13T00:40:55.335Z,94.70
2017-05-13T00:43:24.324Z,94.80
2017-05-13T00:45:53.296Z,94.70
2017-05-13T00:48:21.612Z,94.60
2017-05-13T00:50:49.865Z,94.20
2017-05-13T00:53:18.841Z,93.90
2017-05-13T00:55:47.106Z,93.60
2017-05-13T00:58:15.443Z,93.70
2017-05-13T01:00:43.682Z,94.00
2017-05-13T01:03:12.073Z,94.00
2017-05-13T01:05:41.079Z,94.30
2017-05-13T01:08:09.332Z,94.70
2017-05-13T01:10:38.373Z,95.10
2017-05-13T01:13:06.609Z,95.10
2017-05-13T01:15:35.597Z,94.70
2017-05-13T01:18:04.611Z,94.70
2017-05-13T01:20:32.973Z,94.40
2017-05-13T01:23:01.951Z,94.30
2017-05-13T01:25:30.922Z,94.20
2017-05-13T01:27:59.155Z,94.40
2017-05-13T01:30:27.410Z,94.90
2017-05-13T01:32:55.698Z,94.40
2017-05-13T01:35:23.942Z,94.50
2017-05-13T01:37:52.248Z,94.20
2017-05-13T01:40:20.497Z,94.10
2017-05-13T01:42:49.477Z,94.00
2017-05-13T01:45:17.750Z,93.70
2017-05-13T01:47:46.736Z,94.00
2017-05-13T01:50:15.046Z,93.90
2017-05-13T01:52:44.032Z,93.90
2017-05-13T01:55:13.030Z,93.90
2017-05-13T01:57:42.121Z,93.70
2017-05-13T02:00:10.374Z,93.90
2017-05-13T02:02:38.600Z,93.40
2017-05-13T02:05:06.853Z,93.20
2017-05-13T02:07:35.080Z,93.00
2017-05-13T02:10:03.431Z,93.30
2017-05-13T02:12:31.669Z,93.00
2017-05-13T02:15:00.642Z,92.80
2017-05-13T02:17:28.883Z,92.60
2017-05-13T02:19:57.116Z,92.50
2017-05-13T02:22:25.376Z,92.00
2017-05-13T02:24:54.352Z,92.30
2017-05-13T02:27:22.588Z,92.80
2017-05-13T02:29:50.833Z,93.10
2017-05-13T02:32:19.087Z,93.00
2017-05-13T02:34:48.103Z,93.20
2017-05-13T02:37:16.350Z,93.40
2017-05-13T02:39:44.649Z,93.50
2017-05-13T02:42:12.896Z,93.80
2017-05-13T02:44:41.128Z,93.80
2017-05-13T02:47:09.588Z,94.00
2017-05-13T02:49:37.829Z,94.30
2017-05-13T02:52:06.078Z,94.50
2017-05-13T02:54:34.452Z,94.80
2017-05-13T02:57:02.672Z,94.80
2017-05-13T02:59:31.793Z,94.70
2017-05-13T03:02:00.039Z,94.80
2017-05-13T03:04:29.008Z,94.80
2017-05-13T03:06:57.256Z,95.00
2017-05-13T03:09:25.603Z,95.00
2017-05-13T03:11:53.945Z,94.80
2017-05-13T03:14:22.287Z,94.60
2017-05-13T03:16:50.540Z,94.60
2017-05-13T03:19:18.792Z,94.40
2017-05-13T03:21:47.035Z,94.90
2017-05-13T03:24:15.273Z,94.70
2017-05-13T03:26:43.529Z,95.00
2017-05-13T03:29:11.894Z,95.00
2017-05-13T03:31:40.865Z,95.10
2017-05-13T03:34:09.161Z,95.20
2017-05-13T03:36:38.148Z,94.90
2017-05-13T03:39:07.136Z,94.90
2017-05-13T03:41:36.138Z,94.80
2017-05-13T03:44:05.108Z,94.70
2017-05-13T03:46:33.345Z,94.60
2017-05-13T03:49:01.577Z,94.50
2017-05-13T03:51:30.556Z,94.20
2017-05-13T03:53:59.556Z,94.30
2017-05-13T03:56:28.556Z,94.70
2017-05-13T03:58:57.540Z,94.40
2017-05-13T04:01:26.557Z,94.10
2017-05-13T04:03:54.798Z,94.20
2017-05-13T04:06:23.780Z,94.30
2017-05-13T04:08:52.032Z,94.50
2017-05-13T04:11:20.359Z,94.40
2017-05-13T04:13:48.593Z,94.30
2017-05-13T04:16:16.883Z,94.20
2017-05-13T04:18:45.120Z,94.30
2017-05-13T04:21:13.464Z,94.30
2017-05-13T04:23:41.744Z,94.20
2017-05-13T04:26:10.016Z,93.80
2017-05-13T04:28:38.263Z,93.50
2017-05-13T04:31:06.570Z,93.20
2017-05-13T04:33:34.804Z,93.10
2017-05-13T04:36:03.049Z,92.60
2017-05-13T04:38:31.389Z,92.80
2017-05-13T04:41:00.431Z,92.80
2017-05-13T04:43:28.728Z,92.90
2017-05-13T04:45:57.024Z,92.70
2017-05-13T04:48:25.997Z,92.50
2017-05-13T04:50:54.238Z,92.90
2017-05-13T04:53:22.502Z,92.80
2017-05-13T04:55:50.769Z,92.40
2017-05-13T04:58:19.022Z,92.20
2017-05-13T05:00:48.025Z,92.10
2017-05-13T05:03:16.382Z,92.10
2017-05-13T05:05:45.399Z,91.70
2017-05-13T05:08:13.688Z,91.70
2017-05-13T05:10:41.950Z,91.60
2017-05-13T05:13:10.184Z,92.50
2017-05-13T05:15:38.446Z,92.70
2017-05-13T05:18:06.676Z,92.70
2017-05-13T05:20:34.925Z,92.50
2017-05-13T05:23:03.926Z,92.80
2017-05-13T05:25:32.914Z,93.10
2017-05-13T05:28:01.924Z,93.00
2017-05-13T05:30:30.289Z,93.20
2017-05-13T05:32:59.304Z,93.00
2017-05-13T05:35:27.537Z,92.90
2017-05-13T05:37:55.798Z,93.20
2017-05-13T05:40:24.032Z,93.30
2017-05-13T05:42:52.300Z,93.40
2017-05-13T05:45:20.660Z,93.30
2017-05-13T05:47:48.920Z,92.80
2017-05-13T05:50:17.908Z,92.30
2017-05-13T05:52:46.920Z,92.50
2017-05-13T05:55:15.172Z,92.70
2017-05-13T05:57:44.180Z,92.00
2017-05-13T06:00:13.179Z,92.50
2017-05-13T06:02:42.180Z,92.50
2017-05-13T06:05:10.417Z,91.90
2017-05-13T06:07:38.675Z,91.70
2017-05-13T06:10:06.912Z,91.70
2017-05-13T06:12:35.680Z,91.70
2017-05-13T06:15:04.666Z,91.50
2017-05-13T06:17:33.640Z,91.00
2017-05-13T06:20:01.887Z,91.30
2017-05-13T06:22:30.175Z,91.90
2017-05-13T06:24:58.438Z,91.60
2017-05-13T06:27:26.678Z,91.60
2017-05-13T06:29:54.969Z,91.50
2017-05-13T06:32:23.222Z,91.20
2017-05-13T06:34:51.453Z,90.50
2017-05-13T06:37:19.708Z,90.00
2017-05-13T06:39:47.958Z,88.30
2017-05-13T06:42:16.192Z,88.10
2017-05-13T06:44:44.433Z,87.80
2017-05-13T06:47:12.687Z,87.30
2017-05-13T06:49:40.954Z,85.50
2017-05-13T06:52:09.204Z,83.80
2017-05-13T06:54:38.175Z,84.90
2017-05-13T06:57:06.417Z,84.00
2017-05-13T06:59:34.656Z,83.50
2017-05-13T07:02:03.658Z,82.10
2017-05-13T07:04:32.996Z,81.40
2017-05-13T07:07:01.229Z,80.40
2017-05-13T07:09:29.480Z,79.20
2017-05-13T07:11:58.465Z,79.50
2017-05-13T07:14:26.743Z,79.30
2017-05-13T07:16:55.032Z,79.70
2017-05-13T07:19:23.266Z,79.90
2017-05-13T07:21:51.524Z,80.10
2017-05-13T07:24:19.755Z,79.80
2017-05-13T07:26:48.752Z,81.40
2017-05-13T07:29:17.730Z,80.70
2017-05-13T07:31:46.069Z,80.80
2017-05-13T07:34:14.317Z,81.40
2017-05-13T07:36:42.566Z,80.60
2017-05-13T07:39:11.581Z,80.80
2017-05-13T07:41:39.886Z,80.70
2017-05-13T07:44:08.136Z,79.90
2017-05-13T07:46:36.372Z,79.80
2017-05-13T07:49:04.610Z,79.50
2017-05-13T07:51:32.915Z,79.70
2017-05-13T07:54:01.923Z,80.70
2017-05-13T07:56:30.898Z,79.30
2017-05-13T07:58:59.200Z,78.50
2017-05-13T08:01:27.476Z,78.90
2017-05-13T08:03:56.476Z,78.20
2017-05-13T08:06:24.704Z,78.80
2017-05-13T08:08:52.949Z,78.60
2017-05-13T08:11:21.198Z,78.50
2017-05-13T08:13:49.428Z,78.90
2017-05-13T08:16:17.709Z,77.90
2017-05-13T08:18:45.945Z,77.80
2017-05-13T08:21:14.174Z,77.50
2017-05-13T08:23:42.453Z,77.80
2017-05-13T08:26:11.442Z,78.40
2017-05-13T08:28:39.716Z,79.20
2017-05-13T08:31:08.700Z,78.80
2017-05-13T08:33:37.022Z,78.70
2017-05-13T08:36:05.320Z,79.30
2017-05-13T08:38:33.572Z,80.70
2017-05-13T08:41:02.371Z,80.60
2017-05-13T08:43:30.665Z,80.10
2017-05-13T08:45:58.964Z,79.70
2017-05-13T08:48:27.234Z,80.70
2017-05-13T08:50:55.519Z,82.00
2017-05-13T08:53:24.528Z,82.00
2017-05-13T08:55:53.508Z,81.50
2017-05-13T08:58:21.752Z,81.60
2017-05-13T09:00:49.989Z,81.60
2017-05-13T09:03:18.225Z,81.40
2017-05-13T09:05:46.494Z,82.30
2017-05-13T09:08:14.728Z,82.30
2017-05-13T09:10:42.989Z,82.60
2017-05-13T09:13:11.230Z,82.30
2017-05-13T09:15:41.047Z,81.70
2017-05-13T09:18:10.040Z,81.70
2017-05-13T09:20:38.273Z,81.10
2017-05-13T09:23:06.552Z,80.40
2017-05-13T09:25:34.785Z,80.10
2017-05-13T09:28:03.032Z,79.40
2017-05-13T09:30:31.302Z,79.50
2017-05-13T09:32:59.554Z,78.90
2017-05-13T09:35:27.821Z,77.90
2017-05-13T09:37:56.064Z,77.60
2017-05-13T09:40:24.311Z,78.30
2017-05-13T09:42:52.564Z,78.60
2017-05-13T09:45:20.820Z,77.80
2017-05-13T09:47:49.090Z,77.80
2017-05-13T09:50:17.327Z,77.00
2017-05-13T09:52:44.798Z,77.00
2017-05-13T09:55:13.036Z,75.30
2017-05-13T09:57:41.321Z,72.80
2017-05-13T10:00:10.320Z,73.30
2017-05-13T10:02:39.310Z,73.20
2017-05-13T10:05:07.559Z,72.90
2017-05-13T10:07:35.793Z,73.10
2017-05-13T10:10:04.069Z,72.50
2017-05-13T10:12:32.337Z,72.70
2017-05-13T10:15:00.564Z,72.90
2017-05-13T10:17:28.807Z,72.30
2017-05-13T10:19:57.045Z,69.50
2017-05-13T10:22:25.308Z,68.80
2017-05-13T10:24:54.304Z,69.00
2017-05-13T10:27:23.314Z,69.50
2017-05-13T10:29:51.636Z,68.40
2017-05-13T10:32:19.876Z,68.20
2017-05-13T10:34:50.071Z,69.40
2017-05-13T10:37:18.317Z,70.10
2017-05-13T10:39:46.584Z,70.20
2017-05-13T10:42:14.878Z,69.00
2017-05-13T10:44:43.119Z,69.20
2017-05-13T10:47:11.367Z,69.20
2017-05-13T10:49:39.594Z,67.50
2017-05-13T10:52:07.942Z,67.50
2017-05-13T10:54:36.180Z,67.80
2017-05-13T10:57:04.416Z,67.60
2017-05-13T10:59:32.667Z,67.30
2017-05-13T11:02:00.896Z,64.00
2017-05-13T11:04:29.160Z,63.00
2017-05-13T11:06:58.155Z,61.50
2017-05-13T11:09:27.154Z,59.90
2017-05-13T11:11:56.153Z,59.20
2017-05-13T11:14:24.396Z,59.90
2017-05-13T11:16:52.654Z,60.10
2017-05-13T11:19:20.896Z,59.20
2017-05-13T11:21:49.140Z,59.70
2017-05-13T11:24:18.187Z,59.30
2017-05-13T11:26:46.430Z,59.60
2017-05-13T11:29:14.668Z,59.10
2017-05-13T11:31:42.909Z,59.30
2017-05-13T11:34:11.144Z,60.50
2017-05-13T11:36:39.407Z,59.40
2017-05-13T11:39:08.385Z,59.70
2017-05-13T11:41:36.616Z,59.70
2017-05-13T11:44:05.068Z,61.20
2017-05-13T11:46:33.321Z,61.30
2017-05-13T11:49:02.309Z,62.80
2017-05-13T11:51:31.297Z,62.90
2017-05-13T11:53:59.529Z,64.70
2017-05-13T11:56:27.774Z,65.80
2017-05-13T11:58:56.026Z,66.20
2017-05-13T12:01:25.081Z,68.00
2017-05-13T12:03:53.310Z,68.30
2017-05-13T12:06:22.288Z,68.60
2017-05-13T12:08:51.268Z,68.80
2017-05-13T12:11:20.335Z,69.00
2017-05-13T12:13:48.713Z,69.70
2017-05-13T12:16:16.944Z,69.10
2017-05-13T12:18:45.180Z,68.20
2017-05-13T12:21:13.433Z,67.60
2017-05-13T12:23:41.828Z,69.50
2017-05-13T12:26:10.092Z,70.40
2017-05-13T12:28:38.464Z,71.00
2017-05-13T12:31:06.707Z,71.40
2017-05-13T12:33:34.940Z,71.50
2017-05-13T12:36:03.170Z,71.60
2017-05-13T12:38:31.428Z,71.10
2017-05-13T12:40:59.655Z,71.40
2017-05-13T12:43:27.882Z,72.90
2017-05-13T12:45:56.120Z,74.60
2017-05-13T12:48:25.117Z,75.90
2017-05-13T12:50:54.112Z,77.40
2017-05-13T12:53:23.091Z,78.90
2017-05-13T12:55:51.340Z,79.20
2017-05-13T12:58:19.575Z,79.90
2017-05-13T13:00:47.822Z,80.40
2017-05-13T13:03:16.098Z,80.80
2017-05-13T13:05:45.071Z,82.30
2017-05-13T13:08:13.326Z,81.40
2017-05-13T13:10:41.619Z,83.40
2017-05-13T13:13:09.873Z,83.10
2017-05-13T13:15:43.675Z,83.40
2017-05-13T13:18:11.913Z,85.30
2017-05-13T13:20:40.891Z,85.60
2017-05-13T13:23:09.869Z,86.10
2017-05-13T13:25:39.152Z,86.10
2017-05-13T13:28:07.418Z,86.30
2017-05-13T13:30:35.668Z,85.60
2017-05-13T13:33:03.950Z,87.00
2017-05-13T13:35:32.213Z,87.30
2017-05-13T13:38:00.436Z,87.80
2017-05-13T13:40:28.685Z,87.40
2017-05-13T13:42:57.025Z,87.00
2017-05-13T13:45:25.262Z,85.10
2017-05-13T13:47:53.510Z,84.50
2017-05-13T13:50:21.752Z,84.80
2017-05-13T13:52:50.140Z,84.40
2017-05-13T13:55:18.397Z,84.90
2017-05-13T13:57:47.389Z,85.00
2017-05-13T14:00:16.468Z,82.40
2017-05-13T14:02:44.705Z,83.40
2017-05-13T14:05:12.935Z,84.00
2017-05-13T14:07:41.932Z,84.80
2017-05-13T14:10:10.174Z,86.80
2017-05-13T14:12:38.453Z,85.80
2017-05-13T14:15:06.690Z,83.00
2017-05-13T14:17:34.931Z,84.40
2017-05-13T14:20:03.228Z,82.70
2017-05-13T14:22:31.498Z,83.40
2017-05-13T14:24:59.770Z,82.30
2017-05-13T14:27:28.072Z,81.40
2017-05-13T14:29:56.336Z,80.60
2017-05-13T14:32:24.621Z,79.80
2017-05-13T14:34:52.936Z,81.10
2017-05-13T14:37:21.182Z,82.10
2017-05-13T14:39:49.498Z,82.30
2017-05-13T14:42:18.475Z,81.40
2017-05-13T14:44:46.772Z,81.70
2017-05-13T14:47:15.767Z,81.50
2017-05-13T14:49:44.747Z,80.40
2017-05-13T14:52:13.000Z,80.70
2017-05-13T14:54:41.258Z,80.40
2017-05-13T14:57:09.524Z,80.00
2017-05-13T14:59:37.765Z,80.20
2017-05-13T15:02:06.016Z,80.80
2017-05-13T15:04:34.995Z,81.10
2017-05-13T15:07:03.271Z,80.30
2017-05-13T15:09:31.530Z,78.90
2017-05-13T15:11:59.768Z,78.70
2017-05-13T15:14:27.999Z,77.10
2017-05-13T15:16:56.276Z,77.30
2017-05-13T15:19:24.523Z,71.60
2017-05-13T15:21:52.761Z,73.30
2017-05-13T15:24:21.028Z,74.20
2017-05-13T15:26:49.257Z,73.20
2017-05-13T15:29:17.484Z,72.70
2017-05-13T15:31:45.742Z,73.50
2017-05-13T15:34:14.724Z,73.80
2017-05-13T15:36:43.706Z,72.90
2017-05-13T15:39:11.964Z,73.80
2017-05-13T15:41:40.252Z,75.20
2017-05-13T15:44:08.498Z,72.90
2017-05-13T15:46:36.977Z,69.90
2017-05-13T15:49:05.224Z,67.80
2017-05-13T15:51:33.530Z,69.20
2017-05-13T15:54:01.797Z,71.40
2017-05-13T15:56:30.028Z,73.40
2017-05-13T15:58:59.008Z,75.30
2017-05-13T16:01:27.276Z,74.70
2017-05-13T16:03:55.516Z,76.90
2017-05-13T16:06:23.743Z,77.80
2017-05-13T16:08:52.790Z,78.40
2017-05-13T16:11:21.021Z,79.20
2017-05-13T16:13:49.265Z,78.10
2017-05-13T16:16:17.600Z,77.70
2017-05-13T16:18:45.840Z,78.10
2017-05-13T16:21:14.835Z,77.70
2017-05-13T16:23:43.108Z,78.50
2017-05-13T16:26:12.092Z,79.20
2017-05-13T16:28:40.719Z,74.60
2017-05-13T16:31:08.986Z,71.50
2017-05-13T16:33:37.257Z,66.00
2017-05-13T16:36:05.504Z,60.00
2017-05-13T16:38:34.533Z,56.70
2017-05-13T16:41:02.786Z,53.90
2017-05-13T16:43:31.078Z,51.00
2017-05-13T16:45:59.368Z,49.60
2017-05-13T16:48:27.650Z,48.30
2017-05-13T16:50:55.891Z,46.90
2017-05-13T16:53:24.202Z,47.00
2017-05-13T16:55:52.457Z,47.60
2017-05-13T16:58:20.736Z,46.50
2017-05-13T17:00:49.041Z,46.40
2017-05-13T17:03:17.273Z,46.50
2017-05-13T17:05:45.502Z,46.70
2017-05-13T17:08:13.854Z,47.80
2017-05-13T17:10:42.154Z,51.00
2017-05-13T17:13:10.391Z,54.30
2017-05-13T17:15:38.656Z,57.00
2017-05-13T17:18:06.912Z,58.90
2017-05-13T17:20:35.161Z,62.00
2017-05-13T17:23:03.448Z,62.90
2017-05-13T17:25:32.444Z,63.50
2017-05-13T17:28:01.428Z,63.70
2017-05-13T17:30:29.685Z,63.50
2017-05-13T17:32:57.929Z,65.10
2017-05-13T17:35:26.191Z,65.70
2017-05-13T17:37:54.451Z,66.00
2017-05-13T17:40:22.705Z,66.40
2017-05-13T17:42:51.675Z,63.90
2017-05-13T17:45:19.925Z,67.20
2017-05-13T17:47:48.314Z,67.30
2017-05-13T17:50:16.585Z,68.60
2017-05-13T17:52:45.744Z,73.30
2017-05-13T17:55:14.074Z,78.30
2017-05-13T17:57:42.377Z,79.50
2017-05-13T18:00:11.400Z,81.00
2017-05-13T18:02:39.685Z,77.30
2017-05-13T18:05:07.919Z,76.30
2017-05-13T18:07:36.558Z,74.50
2017-05-13T18:10:04.802Z,74.00
2017-05-13T18:12:33.039Z,74.30
2017-05-13T18:15:01.302Z,74.60
2017-05-13T18:17:29.577Z,74.60
2017-05-13T18:19:57.820Z,74.90
2017-05-13T18:22:26.086Z,75.20
2017-05-13T18:24:54.346Z,75.10
2017-05-13T18:27:22.576Z,76.10
2017-05-13T18:29:50.912Z,76.50
2017-05-13T18:32:19.149Z,77.00
2017-05-13T18:34:48.126Z,77.50
2017-05-13T18:37:16.428Z,77.50
2017-05-13T18:39:45.396Z,77.90
2017-05-13T18:42:13.643Z,78.10
2017-05-13T18:44:41.905Z,80.20
2017-05-13T18:47:10.144Z,79.00
2017-05-13T18:49:39.117Z,79.20
2017-05-13T18:52:07.364Z,81.30
2017-05-13T18:54:35.808Z,83.60
2017-05-13T18:57:04.073Z,85.00
2017-05-13T18:59:33.163Z,85.60
2017-05-13T19:02:01.537Z,85.90
2017-05-13T19:04:29.835Z,86.90
2017-05-13T19:06:58.128Z,89.00
2017-05-13T19:09:26.370Z,90.70
2017-05-13T19:11:55.433Z,90.70
2017-05-13T19:14:23.856Z,91.70
2017-05-13T19:16:52.079Z,91.30
2017-05-13T19:19:20.417Z,91.80
2017-05-13T19:21:48.682Z,91.60
2017-05-13T19:24:16.979Z,91.40
2017-05-13T19:26:45.250Z,91.00
2017-05-13T19:29:13.531Z,90.90
2017-05-13T19:31:41.799Z,90.70
2017-05-13T19:34:10.186Z,90.60
2017-05-13T19:36:38.459Z,91.00
2017-05-13T19:39:06.702Z,91.00
2017-05-13T19:41:35.078Z,91.50
2017-05-13T19:44:03.340Z,92.60
2017-05-13T19:46:32.364Z,92.20
2017-05-13T19:49:00.625Z,92.50
2017-05-13T19:51:28.916Z,92.40
2017-05-13T19:53:57.143Z,92.30
2017-05-13T19:56:25.476Z,92.50
2017-05-13T19:58:53.774Z,92.90
2017-05-13T20:01:22.053Z,93.40
2017-05-13T20:03:50.297Z,93.30
2017-05-13T20:06:18.583Z,93.70
2017-05-13T20:08:46.836Z,93.70
2017-05-13T20:11:15.120Z,93.70
2017-05-13T20:13:43.397Z,94.20
2017-05-13T20:16:11.682Z,94.50
2017-05-13T20:18:39.949Z,94.70
2017-05-13T20:21:08.202Z,94.90
2017-05-13T20:23:36.443Z,95.20
2017-05-13T20:26:04.877Z,95.10
2017-05-13T20:28:33.208Z,95.50
2017-05-13T20:31:01.490Z,95.20
2017-05-13T20:33:30.507Z,94.80
2017-05-13T20:35:58.923Z,94.60
2017-05-13T20:38:27.155Z,94.40
2017-05-13T20:40:55.412Z,94.60
2017-05-13T20:43:24.444Z,94.60
2017-05-13T20:45:52.737Z,94.30
2017-05-13T20:48:20.982Z,94.10
2017-05-13T20:50:49.369Z,94.10
2017-05-13T20:53:17.731Z,94.10
2017-05-13T20:55:46.028Z,94.00
2017-05-13T20:58:14.283Z,93.70
2017-05-13T21:00:42.523Z,93.70
2017-05-13T21:03:10.855Z,93.40
2017-05-13T21:05:39.204Z,94.00
2017-05-13T21:08:07.451Z,94.20
2017-05-13T21:10:35.692Z,94.10
2017-05-13T21:13:04.065Z,94.40
2017-05-13T21:15:32.302Z,93.90
2017-05-13T21:18:01.293Z,93.50
2017-05-13T21:20:30.313Z,93.20
2017-05-13T21:22:58.551Z,92.80
2017-05-13T21:25:27.557Z,92.90
2017-05-13T21:27:55.784Z,92.80
2017-05-13T21:30:24.064Z,93.10
2017-05-13T21:32:52.486Z,92.90
2017-05-13T21:35:20.770Z,92.90
2017-05-13T21:38:09.884Z,92.50
2017-05-13T21:40:38.123Z,92.70
2017-05-13T21:43:06.353Z,92.50
2017-05-13T21:45:35.410Z,91.80
2017-05-13T21:48:03.737Z,91.70
2017-05-13T21:50:32.743Z,91.60
2017-05-13T21:53:00.993Z,91.90
2017-05-13T21:55:29.963Z,91.90
2017-05-13T21:57:58.220Z,92.10
2017-05-13T22:00:26.556Z,92.10
2017-05-13T22:02:54.800Z,92.50
2017-05-13T22:05:23.028Z,92.70
2017-05-13T22:07:51.293Z,92.80
2017-05-13T22:10:19.551Z,93.60
2017-05-13T22:12:48.544Z,93.30
2017-05-13T22:15:17.524Z,93.80
2017-05-13T22:17:46.490Z,93.30
2017-05-13T22:20:14.747Z,93.50
2017-05-13T22:22:43.083Z,93.50
2017-05-13T22:25:12.079Z,93.70
2017-05-13T22:27:40.341Z,94.50
2017-05-13T22:30:09.316Z,94.10
2017-05-13T22:32:37.557Z,93.70
2017-05-13T22:35:05.788Z,93.50
2017-05-13T22:37:34.055Z,93.50
2017-05-13T22:40:03.040Z,93.30
2017-05-13T22:42:32.023Z,93.40
2017-05-13T22:45:00.280Z,93.60
2017-05-13T22:47:29.415Z,93.80
2017-05-13T22:49:58.425Z,93.80
2017-05-13T22:52:26.655Z,93.80
2017-05-13T22:54:54.876Z,94.10
2017-05-13T22:57:23.123Z,94.10
2017-05-13T22:59:52.133Z,93.80
2017-05-13T23:02:20.495Z,93.60
2017-05-13T23:04:49.481Z,93.50
2017-05-13T23:07:18.460Z,93.30
2017-05-13T23:09:46.765Z,93.20
2017-05-13T23:12:15.042Z,93.80
2017-05-13T23:14:43.302Z,93.20
2017-05-13T23:17:12.284Z,93.50
2017-05-13T23:19:40.568Z,93.60
2017-05-13T23:22:09.676Z,93.40
2017-05-13T23:24:38.660Z,93.70
2017-05-13T23:27:07.655Z,94.30
2017-05-13T23:29:36.642Z,94.60
2017-05-13T23:32:05.658Z,94.70
2017-05-13T23:34:33.905Z,95.20
2017-05-13T23:37:02.877Z,95.40
2017-05-13T23:39:31.192Z,95.50
2017-05-13T23:41:59.420Z,95.70
2017-05-13T23:44:27.937Z,95.90
2017-05-13T23:46:57.452Z,96.00
2017-05-13T23:49:25.720Z,95.90
2017-05-13T23:51:54.813Z,95.80
2017-05-13T23:54:23.093Z,96.10
2017-05-13T23:56:51.369Z,96.10
2017-05-13T23:59:20.365Z,95.80
